createdAt,value
2023-04-30T00:00:11.299Z,97862.41
2023-04-30T00:02:39.245Z,97866.13
2023-04-30T00:05:07.585Z,97866.06
2023-04-30T00:07:35.334Z,97864.34
2023-04-30T00:10:04.705Z,97861.72
2023-04-30T00:12:34.925Z,97861.66
2023-04-30T00:15:02.719Z,97851.31
2023-04-30T00:17:30.586Z,97857.31
2023-04-30T00:19:58.371Z,97860.78
2023-04-30T00:22:26.166Z,97855.53
2023-04-30T00:24:53.961Z,97851.22
2023-04-30T00:27:21.825Z,97859.88
2023-04-30T00:29:51.060Z,97852.25
2023-04-30T00:32:18.932Z,97860.78
2023-04-30T00:34:47.039Z,97870.38
2023-04-30T00:37:14.805Z,97864.28
2023-04-30T00:39:42.653Z,97866.06
2023-04-30T00:42:10.427Z,97856.47
2023-04-30T00:44:38.200Z,97849.50
2023-04-30T00:47:07.319Z,97867.91
2023-04-30T00:49:35.236Z,97867.09
2023-04-30T00:52:03.074Z,97864.53
2023-04-30T00:54:31.048Z,97859.28
2023-04-30T00:56:59.538Z,97864.53
2023-04-30T00:59:27.606Z,97865.19
2023-04-30T01:01:56.111Z,97862.66
2023-04-30T01:04:25.480Z,97862.66
2023-04-30T01:06:53.353Z,97867.16
2023-04-30T01:09:21.184Z,97869.63
2023-04-30T01:11:57.993Z,97856.56
2023-04-30T01:14:29.396Z,97863.50
2023-04-30T01:17:06.443Z,97855.81
2023-04-30T01:19:42.766Z,97851.41
2023-04-30T01:22:13.625Z,97850.47
2023-04-30T01:24:53.855Z,97854.75
2023-04-30T01:27:31.316Z,97851.22
2023-04-30T01:30:00.878Z,97845.03
2023-04-30T01:32:28.672Z,97844.44
2023-04-30T01:34:56.913Z,97846.13
2023-04-30T01:37:32.726Z,97845.53
2023-04-30T01:40:10.639Z,97837.63
2023-04-30T01:42:43.287Z,97822.47
2023-04-30T01:45:22.948Z,97831.97
2023-04-30T01:47:54.565Z,97839.09
2023-04-30T01:50:28.345Z,97849.59
2023-04-30T01:52:59.050Z,97858.34
2023-04-30T01:55:30.112Z,97852.31
2023-04-30T01:57:59.583Z,97851.53
2023-04-30T02:00:30.619Z,97857.81
2023-04-30T02:02:58.671Z,97863.06
2023-04-30T02:05:26.557Z,97865.78
2023-04-30T02:07:54.647Z,97866.72
2023-04-30T02:10:23.589Z,97869.41
2023-04-30T02:12:51.499Z,97867.75
2023-04-30T02:15:19.315Z,97872.66
2023-04-30T02:17:48.518Z,97875.28
2023-04-30T02:20:16.283Z,97866.56
2023-04-30T02:22:44.332Z,97874.50
2023-04-30T02:25:12.731Z,97853.97
2023-04-30T02:27:40.593Z,97872.81
2023-04-30T02:30:09.458Z,97865.00
2023-04-30T02:32:37.501Z,97864.84
2023-04-30T02:35:07.443Z,97866.56
2023-04-30T02:37:35.198Z,97857.91
2023-04-30T02:40:03.123Z,97860.69
2023-04-30T02:42:30.969Z,97862.47
2023-04-30T02:44:59.411Z,97866.88
2023-04-30T02:47:27.249Z,97860.00
2023-04-30T02:49:55.108Z,97858.38
2023-04-30T02:52:24.473Z,97868.75
2023-04-30T02:54:52.240Z,97859.09
2023-04-30T02:57:19.972Z,97864.16
2023-04-30T02:59:47.733Z,97871.28
2023-04-30T03:02:15.632Z,97858.16
2023-04-30T03:04:43.381Z,97866.97
2023-04-30T03:07:11.498Z,97869.75
2023-04-30T03:09:40.713Z,97873.16
2023-04-30T03:12:08.476Z,97868.81
2023-04-30T03:14:36.222Z,97868.81
2023-04-30T03:17:04.017Z,97866.19
2023-04-30T03:19:32.062Z,97868.75
2023-04-30T03:22:00.017Z,97838.88
2023-04-30T03:24:27.792Z,97865.34
2023-04-30T03:26:56.920Z,97862.78
2023-04-30T03:29:24.740Z,97842.09
2023-04-30T03:31:52.771Z,97859.22
2023-04-30T03:34:20.654Z,97856.78
2023-04-30T03:36:48.435Z,97844.91
2023-04-30T03:39:16.427Z,97849.84
2023-04-30T03:41:44.177Z,97844.72
2023-04-30T03:44:16.008Z,97853.66
2023-04-30T03:46:44.281Z,97845.84
2023-04-30T03:49:12.240Z,97840.59
2023-04-30T03:51:41.944Z,97840.50
2023-04-30T03:54:10.159Z,97845.66
2023-04-30T03:56:38.579Z,97842.09
2023-04-30T03:59:06.681Z,97845.50
2023-04-30T04:01:35.864Z,97842.81
2023-04-30T04:04:03.696Z,97846.44
2023-04-30T04:06:31.861Z,97850.84
2023-04-30T04:08:59.684Z,97845.66
2023-04-30T04:11:27.456Z,97852.47
2023-04-30T04:13:55.723Z,97855.88
2023-04-30T04:16:23.538Z,97859.34
2023-04-30T04:18:52.655Z,97847.34
2023-04-30T04:21:20.428Z,97862.72
2023-04-30T04:23:48.224Z,97864.50
2023-04-30T04:26:16.584Z,97872.28
2023-04-30T04:28:44.325Z,97868.03
2023-04-30T04:31:12.882Z,97868.81
2023-04-30T04:33:40.685Z,97874.84
2023-04-30T04:36:09.923Z,97874.84
2023-04-30T04:38:37.657Z,97882.81
2023-04-30T04:41:05.455Z,97882.56
2023-04-30T04:43:33.227Z,97878.41
2023-04-30T04:46:01.116Z,97874.91
2023-04-30T04:48:28.873Z,97890.75
2023-04-30T04:50:56.637Z,97893.50
2023-04-30T04:53:25.834Z,97889.06
2023-04-30T04:55:53.594Z,97895.09
2023-04-30T04:58:21.368Z,97885.34
2023-04-30T05:00:49.102Z,97889.44
2023-04-30T05:03:17.022Z,97893.69
2023-04-30T05:05:44.819Z,97889.94
2023-04-30T05:08:12.615Z,97889.88
2023-04-30T05:10:41.736Z,97901.69
2023-04-30T05:13:09.506Z,97899.63
2023-04-30T05:15:37.271Z,97899.38
2023-04-30T05:18:05.260Z,97900.00
2023-04-30T05:20:33.114Z,97904.81
2023-04-30T05:23:01.002Z,97905.44
2023-04-30T05:25:29.597Z,97912.19
2023-04-30T05:27:58.768Z,97905.09
2023-04-30T05:30:26.657Z,97901.69
2023-04-30T05:32:54.726Z,97913.56
2023-04-30T05:35:22.554Z,97908.03
2023-04-30T05:37:50.358Z,97914.56
2023-04-30T05:40:18.399Z,97910.50
2023-04-30T05:42:46.180Z,97919.56
2023-04-30T05:45:17.288Z,97909.44
2023-04-30T05:47:45.316Z,97910.97
2023-04-30T05:50:13.293Z,97911.56
2023-04-30T05:52:41.076Z,97913.69
2023-04-30T05:55:11.804Z,97912.59
2023-04-30T05:57:39.596Z,97909.97
2023-04-30T06:00:08.868Z,97898.69
2023-04-30T06:02:38.134Z,97899.03
2023-04-30T06:05:06.789Z,97898.81
2023-04-30T06:07:34.613Z,97901.19
2023-04-30T06:10:02.528Z,97897.06
2023-04-30T06:12:30.343Z,97901.03
2023-04-30T06:14:58.209Z,97896.03
2023-04-30T06:17:26.011Z,97903.66
2023-04-30T06:19:55.584Z,97902.34
2023-04-30T06:22:23.669Z,97877.53
2023-04-30T06:24:51.429Z,97905.00
2023-04-30T06:27:19.211Z,97908.13
2023-04-30T06:29:46.984Z,97913.47
2023-04-30T06:32:14.759Z,97907.66
2023-04-30T06:34:42.504Z,97918.50
2023-04-30T06:37:11.644Z,97914.22
2023-04-30T06:39:39.402Z,97913.75
2023-04-30T06:42:07.171Z,97912.91
2023-04-30T06:44:34.952Z,97915.78
2023-04-30T06:47:02.756Z,97911.31
2023-04-30T06:49:30.551Z,97912.88
2023-04-30T06:51:58.593Z,97914.72
2023-04-30T06:54:27.815Z,97910.38
2023-04-30T06:56:55.667Z,97909.28
2023-04-30T06:59:23.439Z,97910.59
2023-04-30T07:01:51.332Z,97911.50
2023-04-30T07:04:20.094Z,97911.00
2023-04-30T07:06:47.920Z,97908.81
2023-04-30T07:09:16.645Z,97910.09
2023-04-30T07:11:45.790Z,97901.94
2023-04-30T07:14:13.612Z,97908.75
2023-04-30T07:16:41.412Z,97914.34
2023-04-30T07:19:09.199Z,97906.56
2023-04-30T07:21:36.940Z,97906.69
2023-04-30T07:24:05.460Z,97908.91
2023-04-30T07:26:33.189Z,97903.41
2023-04-30T07:29:02.385Z,97898.56
2023-04-30T07:31:30.414Z,97896.66
2023-04-30T07:33:58.533Z,97905.03
2023-04-30T07:36:27.460Z,97906.47
2023-04-30T07:38:55.264Z,97912.53
2023-04-30T07:41:23.098Z,97910.22
2023-04-30T07:43:50.923Z,97896.00
2023-04-30T07:46:20.129Z,97903.63
2023-04-30T07:48:47.983Z,97905.34
2023-04-30T07:51:15.723Z,97901.09
2023-04-30T07:53:43.496Z,97901.09
2023-04-30T07:56:11.231Z,97903.22
2023-04-30T07:58:39.018Z,97909.16
2023-04-30T08:01:06.834Z,97895.59
2023-04-30T08:03:36.801Z,97912.38
2023-04-30T08:06:05.302Z,97908.75
2023-04-30T08:08:33.126Z,97919.72
2023-04-30T08:11:00.980Z,97916.53
2023-04-30T08:13:28.730Z,97913.75
2023-04-30T08:15:56.469Z,97915.00
2023-04-30T08:18:24.238Z,97915.38
2023-04-30T08:20:53.366Z,97916.59
2023-04-30T08:23:21.188Z,97913.75
2023-04-30T08:25:48.949Z,97907.78
2023-04-30T08:28:16.744Z,97906.88
2023-04-30T08:30:44.690Z,97901.97
2023-04-30T08:33:12.671Z,97901.19
2023-04-30T08:35:40.505Z,97917.47
2023-04-30T08:38:10.068Z,97909.19
2023-04-30T08:40:50.879Z,97904.63
2023-04-30T08:43:19.967Z,97897.78
2023-04-30T08:45:47.844Z,97908.75
2023-04-30T08:48:16.629Z,97905.88
2023-04-30T08:50:44.523Z,97894.53
2023-04-30T08:53:15.421Z,97909.84
2023-04-30T08:55:43.182Z,97904.25
2023-04-30T08:58:11.397Z,97909.44
2023-04-30T09:00:39.936Z,97891.38
2023-04-30T09:03:08.624Z,97912.31
2023-04-30T09:05:37.984Z,97907.09
2023-04-30T09:08:06.582Z,97912.78
2023-04-30T09:10:36.615Z,97908.06
2023-04-30T09:13:07.487Z,97901.53
2023-04-30T09:15:36.399Z,97904.84
2023-04-30T09:18:09.102Z,97902.69
2023-04-30T09:20:37.067Z,97901.53
2023-04-30T09:23:08.982Z,97893.72
2023-04-30T09:25:42.265Z,97904.06
2023-04-30T09:28:11.525Z,97895.56
2023-04-30T09:30:39.848Z,97893.91
2023-04-30T09:33:10.769Z,97890.66
2023-04-30T09:35:41.739Z,97882.41
2023-04-30T09:38:09.983Z,97888.31
2023-04-30T09:40:38.600Z,97884.47
2023-04-30T09:43:08.192Z,97891.28
2023-04-30T09:45:44.633Z,97880.91
2023-04-30T09:48:16.860Z,97884.84
2023-04-30T09:50:47.245Z,97875.50
2023-04-30T09:53:17.901Z,97868.41
2023-04-30T09:55:47.126Z,97874.97
2023-04-30T09:58:17.770Z,97879.94
2023-04-30T10:00:48.311Z,97880.00
2023-04-30T10:03:16.561Z,97884.47
2023-04-30T10:05:47.347Z,97877.63
2023-04-30T10:08:20.595Z,97871.56
2023-04-30T10:10:52.450Z,97867.91
2023-04-30T10:13:21.861Z,97873.31
2023-04-30T10:15:51.828Z,97851.28
2023-04-30T10:18:21.563Z,97868.78
2023-04-30T10:20:51.903Z,97857.59
2023-04-30T10:23:19.762Z,97851.09
2023-04-30T10:25:47.584Z,97855.38
2023-04-30T10:28:15.606Z,97851.53
2023-04-30T10:30:45.314Z,97845.44
2023-04-30T10:33:19.597Z,97846.72
2023-04-30T10:35:52.463Z,97851.56
2023-04-30T10:38:23.933Z,97850.06
2023-04-30T10:40:52.086Z,97847.53
2023-04-30T10:43:22.258Z,97838.66
2023-04-30T10:45:51.622Z,97833.00
2023-04-30T10:48:25.431Z,97829.00
2023-04-30T10:50:54.287Z,97843.69
2023-04-30T10:53:23.033Z,97837.09
2023-04-30T10:55:54.889Z,97831.47
2023-04-30T10:58:27.674Z,97825.31
2023-04-30T11:01:05.271Z,97823.78
2023-04-30T11:03:33.747Z,97812.88
2023-04-30T11:06:03.956Z,97822.06
2023-04-30T11:08:35.755Z,97816.09
2023-04-30T11:11:05.195Z,97820.09
2023-04-30T11:13:43.274Z,97798.63
2023-04-30T11:16:12.597Z,97807.31
2023-04-30T11:18:45.760Z,97809.72
2023-04-30T11:21:13.916Z,97803.56
2023-04-30T11:23:43.530Z,97798.75
2023-04-30T11:26:11.806Z,97807.31
2023-04-30T11:28:39.677Z,97803.84
2023-04-30T11:31:07.644Z,97796.19
2023-04-30T11:33:36.976Z,97801.63
2023-04-30T11:36:05.300Z,97810.97
2023-04-30T11:38:38.600Z,97792.19
2023-04-30T11:41:06.493Z,97805.16
2023-04-30T11:43:35.529Z,97796.69
2023-04-30T11:46:06.098Z,97794.28
2023-04-30T11:48:36.820Z,97797.31
2023-04-30T11:51:06.445Z,97795.78
2023-04-30T11:53:34.214Z,97794.41
2023-04-30T11:56:06.423Z,97788.19
2023-04-30T11:58:38.106Z,97781.09
2023-04-30T12:01:06.477Z,97786.41
2023-04-30T12:03:34.402Z,97787.72
2023-04-30T12:06:03.696Z,97791.13
2023-04-30T12:08:31.489Z,97771.19
2023-04-30T12:10:59.264Z,97776.00
2023-04-30T12:13:26.990Z,97778.44
2023-04-30T12:16:01.733Z,97774.63
2023-04-30T12:18:29.597Z,97773.72
2023-04-30T12:20:57.488Z,97778.44
2023-04-30T12:23:26.833Z,97787.09
2023-04-30T12:25:54.685Z,97787.75
2023-04-30T12:28:24.525Z,97783.31
2023-04-30T12:30:54.682Z,97776.06
2023-04-30T12:33:22.609Z,97778.78
2023-04-30T12:35:54.080Z,97779.50
2023-04-30T12:38:23.348Z,97774.72
2023-04-30T12:40:52.499Z,97777.41
2023-04-30T12:43:20.241Z,97769.56
2023-04-30T12:45:51.637Z,97784.88
2023-04-30T12:48:20.697Z,97767.59
2023-04-30T12:50:56.508Z,97769.56
2023-04-30T12:53:24.813Z,97758.81
2023-04-30T12:56:10.596Z,97756.97
2023-04-30T12:58:39.432Z,97742.47
2023-04-30T13:01:11.398Z,97743.59
2023-04-30T13:03:39.430Z,97752.53
2023-04-30T13:06:07.463Z,97749.34
2023-04-30T13:08:45.645Z,97735.75
2023-04-30T13:11:15.386Z,97734.84
2023-04-30T13:13:43.590Z,97732.91
2023-04-30T13:16:11.521Z,97713.53
2023-04-30T13:18:39.308Z,97714.38
2023-04-30T13:21:07.276Z,97727.72
2023-04-30T13:23:44.539Z,97735.97
2023-04-30T13:26:22.692Z,97726.13
2023-04-30T13:28:50.453Z,97717.19
2023-04-30T13:31:18.511Z,97716.84
2023-04-30T13:33:46.391Z,97719.97
2023-04-30T13:36:14.256Z,97725.44
2023-04-30T13:38:42.061Z,97711.66
2023-04-30T13:41:09.829Z,97719.97
2023-04-30T13:43:42.068Z,97714.28
2023-04-30T13:46:10.280Z,97700.66
2023-04-30T13:48:38.152Z,97707.34
2023-04-30T13:51:06.044Z,97694.75
2023-04-30T13:53:33.826Z,97711.81
2023-04-30T13:56:03.345Z,97697.75
2023-04-30T13:58:31.172Z,97698.00
2023-04-30T14:01:00.499Z,97699.13
2023-04-30T14:03:28.410Z,97690.25
2023-04-30T14:05:56.449Z,97685.56
2023-04-30T14:08:24.267Z,97686.72
2023-04-30T14:10:52.443Z,97685.91
2023-04-30T14:13:20.297Z,97687.38
2023-04-30T14:15:48.186Z,97683.19
2023-04-30T14:18:18.447Z,97677.16
2023-04-30T14:20:46.275Z,97680.63
2023-04-30T14:23:14.113Z,97678.84
2023-04-30T14:25:42.046Z,97683.47
2023-04-30T14:28:10.035Z,97679.56
2023-04-30T14:30:37.778Z,97681.38
2023-04-30T14:33:11.136Z,97667.41
2023-04-30T14:35:41.585Z,97665.03
2023-04-30T14:38:09.520Z,97657.06
2023-04-30T14:40:37.466Z,97660.16
2023-04-30T14:43:05.437Z,97651.06
2023-04-30T14:45:34.164Z,97652.09
2023-04-30T14:48:03.947Z,97654.69
2023-04-30T14:50:33.323Z,97656.41
2023-04-30T14:53:02.623Z,97656.03
2023-04-30T14:55:30.385Z,97651.72
2023-04-30T14:57:58.550Z,97647.63
2023-04-30T15:00:26.437Z,97637.81
2023-04-30T15:02:54.306Z,97621.94
2023-04-30T15:05:22.308Z,97632.59
2023-04-30T15:07:50.169Z,97635.63
2023-04-30T15:10:19.447Z,97633.03
2023-04-30T15:12:47.221Z,97636.41
2023-04-30T15:15:16.264Z,97634.81
2023-04-30T15:17:46.139Z,97640.03
2023-04-30T15:20:14.121Z,97638.63
2023-04-30T15:22:43.250Z,97627.03
2023-04-30T15:25:11.106Z,97623.19
2023-04-30T15:27:41.567Z,97621.19
2023-04-30T15:30:10.589Z,97613.38
2023-04-30T15:32:38.960Z,97628.03
2023-04-30T15:35:07.568Z,97619.06
2023-04-30T15:37:35.598Z,97620.22
2023-04-30T15:40:04.766Z,97621.66
2023-04-30T15:42:32.600Z,97616.75
2023-04-30T15:45:01.857Z,97620.81
2023-04-30T15:47:29.642Z,97618.34
2023-04-30T15:49:57.488Z,97609.03
2023-04-30T15:52:25.572Z,97603.72
2023-04-30T15:54:53.397Z,97607.84
2023-04-30T15:57:21.740Z,97604.69
2023-04-30T15:59:49.554Z,97605.41
2023-04-30T16:02:18.649Z,97606.66
2023-04-30T16:04:46.392Z,97605.19
2023-04-30T16:07:14.141Z,97605.34
2023-04-30T16:09:45.745Z,97606.94
2023-04-30T16:12:13.617Z,97596.25
2023-04-30T16:14:41.403Z,97590.63
2023-04-30T16:17:09.688Z,97588.34
2023-04-30T16:19:38.862Z,97590.69
2023-04-30T16:22:08.949Z,97589.25
2023-04-30T16:24:36.953Z,97591.44
2023-04-30T16:27:04.863Z,97588.53
2023-04-30T16:29:32.632Z,97581.28
2023-04-30T16:32:00.537Z,97567.72
2023-04-30T16:34:28.314Z,97583.22
2023-04-30T16:36:57.441Z,97576.03
2023-04-30T16:39:25.201Z,97575.47
2023-04-30T16:41:52.947Z,97573.00
2023-04-30T16:44:21.812Z,97571.88
2023-04-30T16:46:50.593Z,97569.25
2023-04-30T16:49:18.336Z,97568.97
2023-04-30T16:51:46.081Z,97566.84
2023-04-30T16:54:15.223Z,97564.50
2023-04-30T16:56:43.016Z,97569.59
2023-04-30T16:59:11.040Z,97563.06
2023-04-30T17:01:38.877Z,97560.78
2023-04-30T17:04:06.761Z,97565.44
2023-04-30T17:06:35.540Z,97563.56
2023-04-30T17:09:03.554Z,97560.19
2023-04-30T17:11:32.680Z,97553.97
2023-04-30T17:14:00.539Z,97559.66
2023-04-30T17:16:28.373Z,97554.13
2023-04-30T17:18:56.165Z,97558.38
2023-04-30T17:21:23.962Z,97561.19
2023-04-30T17:23:51.726Z,97557.00
2023-04-30T17:26:20.355Z,97550.56
2023-04-30T17:28:49.495Z,97547.59
2023-04-30T17:31:17.307Z,97545.50
2023-04-30T17:33:46.143Z,97544.53
2023-04-30T17:36:14.241Z,97533.78
2023-04-30T17:38:42.074Z,97547.66
2023-04-30T17:41:09.831Z,97547.38
2023-04-30T17:43:37.616Z,97543.09
2023-04-30T17:46:06.885Z,97543.88
2023-04-30T17:48:34.700Z,97545.84
2023-04-30T17:51:02.708Z,97550.06
2023-04-30T17:53:30.516Z,97547.56
2023-04-30T17:55:59.402Z,97549.28
2023-04-30T17:58:28.144Z,97542.53
2023-04-30T18:00:56.584Z,97552.22
2023-04-30T18:03:25.866Z,97545.66
2023-04-30T18:05:53.778Z,97542.69
2023-04-30T18:08:21.523Z,97542.16
2023-04-30T18:10:49.515Z,97536.41
2023-04-30T18:13:17.364Z,97546.22
2023-04-30T18:15:45.134Z,97541.31
2023-04-30T18:18:13.049Z,97534.19
2023-04-30T18:20:42.392Z,97520.72
2023-04-30T18:23:10.279Z,97528.88
2023-04-30T18:25:38.084Z,97530.28
2023-04-30T18:28:06.139Z,97535.44
2023-04-30T18:30:34.768Z,97526.88
2023-04-30T18:33:02.654Z,97530.78
2023-04-30T18:35:30.469Z,97529.50
2023-04-30T18:37:59.738Z,97527.34
2023-04-30T18:40:28.287Z,97535.41
2023-04-30T18:42:56.903Z,97538.31
2023-04-30T18:45:25.049Z,97538.41
2023-04-30T18:47:52.898Z,97535.31
2023-04-30T18:50:21.612Z,97540.06
2023-04-30T18:52:49.554Z,97545.59
2023-04-30T18:55:18.898Z,97551.56
2023-04-30T18:57:46.662Z,97553.06
2023-04-30T19:00:15.232Z,97552.59
2023-04-30T19:02:44.189Z,97555.03
2023-04-30T19:05:12.757Z,97552.06
2023-04-30T19:07:40.934Z,97549.41
2023-04-30T19:10:09.344Z,97559.59
2023-04-30T19:12:38.597Z,97547.28
2023-04-30T19:15:08.154Z,97561.75
2023-04-30T19:17:36.415Z,97559.38
2023-04-30T19:20:04.750Z,97557.81
2023-04-30T19:22:32.614Z,97558.22
2023-04-30T19:25:00.480Z,97552.44
2023-04-30T19:27:28.214Z,97555.25
2023-04-30T19:29:58.532Z,97555.41
2023-04-30T19:32:26.751Z,97567.94
2023-04-30T19:34:54.940Z,97571.84
2023-04-30T19:37:22.945Z,97561.47
2023-04-30T19:39:50.786Z,97554.00
2023-04-30T19:42:18.540Z,97561.25
2023-04-30T19:44:46.344Z,97565.81
2023-04-30T19:47:15.461Z,97567.78
2023-04-30T19:49:44.625Z,97566.59
2023-04-30T19:52:12.409Z,97559.00
2023-04-30T19:54:40.411Z,97560.97
2023-04-30T19:57:08.168Z,97559.66
2023-04-30T19:59:36.016Z,97560.84
2023-04-30T20:02:03.878Z,97564.47
2023-04-30T20:04:33.037Z,97569.91
2023-04-30T20:07:01.240Z,97563.28
2023-04-30T20:09:29.046Z,97566.16
2023-04-30T20:11:56.841Z,97563.28
2023-04-30T20:14:24.888Z,97560.00
2023-04-30T20:16:54.430Z,97565.19
2023-04-30T20:19:23.301Z,97564.13
2023-04-30T20:21:52.515Z,97553.31
2023-04-30T20:24:21.660Z,97553.44
2023-04-30T20:26:49.493Z,97550.44
2023-04-30T20:29:18.586Z,97548.00
2023-04-30T20:31:46.653Z,97545.72
2023-04-30T20:34:14.585Z,97552.94
2023-04-30T20:36:42.440Z,97555.13
2023-04-30T20:39:11.570Z,97545.50
2023-04-30T20:41:39.438Z,97545.50
2023-04-30T20:44:07.253Z,97556.56
2023-04-30T20:46:36.287Z,97546.69
2023-04-30T20:49:05.140Z,97551.00
2023-04-30T20:51:33.093Z,97552.94
2023-04-30T20:54:00.917Z,97546.19
2023-04-30T20:56:30.267Z,97553.63
2023-04-30T20:58:58.070Z,97528.59
2023-04-30T21:01:25.919Z,97548.94
2023-04-30T21:03:55.639Z,97547.34
2023-04-30T21:06:23.502Z,97542.91
2023-04-30T21:08:51.319Z,97547.81
2023-04-30T21:11:19.453Z,97550.81
2023-04-30T21:13:51.273Z,97544.31
2023-04-30T21:16:19.482Z,97548.75
2023-04-30T21:18:48.798Z,97545.59
2023-04-30T21:21:17.024Z,97547.75
2023-04-30T21:23:47.361Z,97546.38
2023-04-30T21:26:23.351Z,97544.09
2023-04-30T21:28:52.811Z,97534.94
2023-04-30T21:31:21.003Z,97523.34
2023-04-30T21:33:48.947Z,97534.56
2023-04-30T21:36:18.263Z,97532.25
2023-04-30T21:38:46.530Z,97530.19
2023-04-30T21:41:15.455Z,97521.13
2023-04-30T21:43:43.554Z,97535.69
2023-04-30T21:46:13.596Z,97529.91
2023-04-30T21:48:41.965Z,97525.56
2023-04-30T21:51:15.029Z,97528.31
2023-04-30T21:53:43.417Z,97529.63
2023-04-30T21:56:11.959Z,97533.22
2023-04-30T21:58:40.492Z,97527.09
2023-04-30T22:01:08.445Z,97526.69
2023-04-30T22:03:38.132Z,97525.00
2023-04-30T22:06:06.402Z,97513.94
2023-04-30T22:08:34.227Z,97502.03
2023-04-30T22:11:04.746Z,97519.22
2023-04-30T22:13:32.592Z,97513.63
2023-04-30T22:16:03.545Z,97505.84
2023-04-30T22:18:31.643Z,97512.09
2023-04-30T22:21:02.313Z,97514.94
2023-04-30T22:23:30.322Z,97508.06
2023-04-30T22:25:58.136Z,97506.41
2023-04-30T22:28:26.284Z,97506.72
2023-04-30T22:30:59.372Z,97508.00
2023-04-30T22:33:27.648Z,97514.34
2023-04-30T22:35:56.218Z,97512.88
2023-04-30T22:38:25.608Z,97511.31
2023-04-30T22:40:53.404Z,97507.72
2023-04-30T22:43:21.469Z,97499.50
2023-04-30T22:45:49.563Z,97500.47
2023-04-30T22:48:17.766Z,97510.19
2023-04-30T22:50:45.924Z,97502.47
2023-04-30T22:53:14.449Z,97507.00
2023-04-30T22:55:43.759Z,97505.34
2023-04-30T22:58:11.584Z,97499.44
2023-04-30T23:00:39.722Z,97491.31
2023-04-30T23:03:07.640Z,97503.25
2023-04-30T23:05:35.563Z,97498.50
2023-04-30T23:08:04.434Z,97508.28
2023-04-30T23:10:32.323Z,97508.50
2023-04-30T23:13:01.540Z,97508.50
2023-04-30T23:15:29.732Z,97500.81
2023-04-30T23:18:00.228Z,97503.88
2023-04-30T23:20:28.477Z,97490.91
2023-04-30T23:22:56.510Z,97500.84
2023-04-30T23:25:24.620Z,97489.63
2023-04-30T23:27:52.815Z,97492.28
2023-04-30T23:30:23.504Z,97492.50
2023-04-30T23:32:51.380Z,97488.28
2023-04-30T23:35:19.378Z,97494.81
2023-04-30T23:37:47.530Z,97487.00
2023-04-30T23:40:15.958Z,97493.34
2023-04-30T23:42:43.794Z,97484.69
2023-04-30T23:45:12.048Z,97487.44
2023-04-30T23:47:41.411Z,97490.41
2023-04-30T23:50:10.362Z,97484.28
2023-04-30T23:52:38.826Z,97487.03
2023-04-30T23:55:07.854Z,97479.22
2023-04-30T23:57:35.965Z,97477.75
